Accueil
METAR-TAF:

METAR-TAF

Aéroports :

Emmen, Suisse

latitude: 47-05-32N, longitude: 8-18-16E, altitude: 426 m

Observation

Le bulletin a été fait il y a 30 minutes, à 20:50 UTC
Vent 3 kt de nord/nord-ouest, variant entre ouest/nord-ouest et nord
Température 4°C
Humidité 100%
Pression 1012 hPa
Visibilité 10 km ou plus
Quelques nuages à une hauteur de 700 ft
Nuages épars à une hauteur de 1400 ft
Ciel couvert à une hauteur de 3500 ft

METAR: LSME 262050Z AUTO 33003KT 300V360 9999NDV FEW007 SCT014 OVC035 04/04 Q1012 RMK

Heure: 23:20 (21:20 UTC)


TAF: absent

Observations et prévisions météorologiques de plus de 4000 aéroports (messages METAR et TAF).

Les stations disponibles sont représentées par des disques jaunes et rouges sur la carte.

Passer la souris dessus pour voir le nom de la station.

Cliquer dessus pour voir les observations et prévisions météorologiques.

Pour changer de carte: cliquez sur les boutons verts avec une croix noire pour zoomer, sur le bouton vert avec un tiret pour effectuer un zoom arrière, ou sur les flèches vertes pour les cartes adjacentes.


METAR-TAF: